sensor_id;sensor_type;location;lat;lon;timestamp;temperature;humidity
19805;DHT22;10062;51.052;13.756;2022-07-18T00:01:09;17.30;1.00
19805;DHT22;10062;51.052;13.756;2022-07-18T00:03:40;16.70;1.00
19805;DHT22;10062;51.052;13.756;2022-07-18T00:06:12;16.50;1.00
19805;DHT22;10062;51.052;13.756;2022-07-18T00:08:44;16.50;1.00
19805;DHT22;10062;51.052;13.756;2022-07-18T00:11:15;15.60;1.00
19805;DHT22;10062;51.052;13.756;2022-07-18T00:13:48;16.20;1.00
19805;DHT22;10062;51.052;13.756;2022-07-18T00:16:21;16.20;1.00
19805;DHT22;10062;51.052;13.756;2022-07-18T00:18:55;16.00;57.60
19805;DHT22;10062;51.052;13.756;2022-07-18T00:21:28;15.70;99.90
19805;DHT22;10062;51.052;13.756;2022-07-18T00:24:00;15.90;99.90
19805;DHT22;10062;51.052;13.756;2022-07-18T00:26:32;16.00;99.90
19805;DHT22;10062;51.052;13.756;2022-07-18T00:29:05;16.00;99.90
19805;DHT22;10062;51.052;13.756;2022-07-18T00:31:37;16.30;66.80
19805;DHT22;10062;51.052;13.756;2022-07-18T00:34:09;16.40;3.00
19805;DHT22;10062;51.052;13.756;2022-07-18T00:36:41;16.40;1.00
19805;DHT22;10062;51.052;13.756;2022-07-18T00:39:12;16.10;99.90
19805;DHT22;10062;51.052;13.756;2022-07-18T00:41:47;15.90;90.80
19805;DHT22;10062;51.052;13.756;2022-07-18T00:44:22;15.90;99.90
19805;DHT22;10062;51.052;13.756;2022-07-18T00:46:55;15.90;99.90
19805;DHT22;10062;51.052;13.756;2022-07-18T00:49:28;15.80;99.90
19805;DHT22;10062;51.052;13.756;2022-07-18T00:52:00;15.80;99.90
19805;DHT22;10062;51.052;13.756;2022-07-18T00:54:32;15.70;99.90
19805;DHT22;10062;51.052;13.756;2022-07-18T00:57:03;15.70;99.90
19805;DHT22;10062;51.052;13.756;2022-07-18T00:59:37;15.70;99.90
19805;DHT22;10062;51.052;13.756;2022-07-18T01:02:26;15.70;99.90
19805;DHT22;10062;51.052;13.756;2022-07-18T01:04:58;15.60;99.90
19805;DHT22;10062;51.052;13.756;2022-07-18T01:07:29;15.70;99.90
19805;DHT22;10062;51.052;13.756;2022-07-18T01:10:01;15.60;1.00
19805;DHT22;10062;51.052;13.756;2022-07-18T01:12:33;15.70;1.00
19805;DHT22;10062;51.052;13.756;2022-07-18T01:15:07;15.40;1.00
19805;DHT22;10062;51.052;13.756;2022-07-18T01:17:39;15.40;1.00
19805;DHT22;10062;51.052;13.756;2022-07-18T01:20:11;15.30;1.00
19805;DHT22;10062;51.052;13.756;2022-07-18T01:22:44;15.30;1.00
19805;DHT22;10062;51.052;13.756;2022-07-18T01:25:16;15.40;1.00
19805;DHT22;10062;51.052;13.756;2022-07-18T01:27:48;15.40;1.00
19805;DHT22;10062;51.052;13.756;2022-07-18T01:30:20;15.50;1.00
19805;DHT22;10062;51.052;13.756;2022-07-18T01:32:55;15.60;1.00
19805;DHT22;10062;51.052;13.756;2022-07-18T01:35:28;15.70;1.00
19805;DHT22;10062;51.052;13.756;2022-07-18T01:38:02;15.80;99.90
19805;DHT22;10062;51.052;13.756;2022-07-18T01:40:34;15.90;99.90
19805;DHT22;10062;51.052;13.756;2022-07-18T01:43:06;15.60;1.00
19805;DHT22;10062;51.052;13.756;2022-07-18T01:45:38;15.20;1.00
19805;DHT22;10062;51.052;13.756;2022-07-18T01:48:10;15.10;1.00
19805;DHT22;10062;51.052;13.756;2022-07-18T01:50:41;14.90;1.00
19805;DHT22;10062;51.052;13.756;2022-07-18T01:53:14;15.00;1.00
19805;DHT22;10062;51.052;13.756;2022-07-18T01:55:46;14.90;1.00
19805;DHT22;10062;51.052;13.756;2022-07-18T01:58:18;15.10;1.00
19805;DHT22;10062;51.052;13.756;2022-07-18T02:00:49;14.90;1.00
19805;DHT22;10062;51.052;13.756;2022-07-18T02:03:21;14.90;1.00
19805;DHT22;10062;51.052;13.756;2022-07-18T02:05:53;14.90;24.60
19805;DHT22;10062;51.052;13.756;2022-07-18T02:08:26;14.90;1.00
19805;DHT22;10062;51.052;13.756;2022-07-18T02:10:58;15.00;1.00
19805;DHT22;10062;51.052;13.756;2022-07-18T02:13:29;15.10;1.00
19805;DHT22;10062;51.052;13.756;2022-07-18T02:16:01;15.20;1.00
19805;DHT22;10062;51.052;13.756;2022-07-18T02:18:33;14.80;99.90
19805;DHT22;10062;51.052;13.756;2022-07-18T02:21:05;14.60;1.00
19805;DHT22;10062;51.052;13.756;2022-07-18T02:23:39;14.70;1.00
19805;DHT22;10062;51.052;13.756;2022-07-18T02:26:11;14.60;1.00
19805;DHT22;10062;51.052;13.756;2022-07-18T02:28:43;14.40;1.00
19805;DHT22;10062;51.052;13.756;2022-07-18T02:31:14;14.50;1.00
19805;DHT22;10062;51.052;13.756;2022-07-18T02:33:46;14.70;1.00
19805;DHT22;10062;51.052;13.756;2022-07-18T02:36:18;14.60;1.00
19805;DHT22;10062;51.052;13.756;2022-07-18T02:38:51;14.60;1.00
19805;DHT22;10062;51.052;13.756;2022-07-18T02:41:22;14.10;1.00
19805;DHT22;10062;51.052;13.756;2022-07-18T02:43:54;14.00;1.00
19805;DHT22;10062;51.052;13.756;2022-07-18T02:46:26;14.20;1.00
19805;DHT22;10062;51.052;13.756;2022-07-18T02:48:58;14.40;1.00
19805;DHT22;10062;51.052;13.756;2022-07-18T02:51:29;14.60;1.00
19805;DHT22;10062;51.052;13.756;2022-07-18T02:54:02;14.60;1.00
19805;DHT22;10062;51.052;13.756;2022-07-18T02:56:34;14.60;1.00
19805;DHT22;10062;51.052;13.756;2022-07-18T02:59:06;14.40;99.90
19805;DHT22;10062;51.052;13.756;2022-07-18T03:01:38;14.20;1.00
19805;DHT22;10062;51.052;13.756;2022-07-18T03:04:10;14.10;1.00
19805;DHT22;10062;51.052;13.756;2022-07-18T03:06:42;14.10;1.00
19805;DHT22;10062;51.052;13.756;2022-07-18T03:09:15;14.30;99.90
19805;DHT22;10062;51.052;13.756;2022-07-18T03:11:47;14.20;1.00
19805;DHT22;10062;51.052;13.756;2022-07-18T03:14:19;14.10;1.00
19805;DHT22;10062;51.052;13.756;2022-07-18T03:16:50;14.10;99.90
19805;DHT22;10062;51.052;13.756;2022-07-18T03:19:22;14.20;99.90
19805;DHT22;10062;51.052;13.756;2022-07-18T03:21:54;14.30;1.00
19805;DHT22;10062;51.052;13.756;2022-07-18T03:24:27;14.40;99.90
19805;DHT22;10062;51.052;13.756;2022-07-18T03:26:59;14.20;2.80
19805;DHT22;10062;51.052;13.756;2022-07-18T03:29:30;14.10;1.00
19805;DHT22;10062;51.052;13.756;2022-07-18T03:32:02;14.00;99.90
19805;DHT22;10062;51.052;13.756;2022-07-18T03:34:34;13.90;1.00
19805;DHT22;10062;51.052;13.756;2022-07-18T03:37:06;14.00;1.00
19805;DHT22;10062;51.052;13.756;2022-07-18T03:39:39;14.10;99.90
19805;DHT22;10062;51.052;13.756;2022-07-18T03:42:11;13.90;99.90
19805;DHT22;10062;51.052;13.756;2022-07-18T03:44:42;13.90;1.00
19805;DHT22;10062;51.052;13.756;2022-07-18T03:47:14;13.90;1.00
19805;DHT22;10062;51.052;13.756;2022-07-18T03:49:46;13.70;99.90
19805;DHT22;10062;51.052;13.756;2022-07-18T03:52:17;13.70;1.00
19805;DHT22;10062;51.052;13.756;2022-07-18T03:54:50;13.60;1.00
19805;DHT22;10062;51.052;13.756;2022-07-18T03:57:22;13.40;1.00
19805;DHT22;10062;51.052;13.756;2022-07-18T03:59:54;13.30;99.90
19805;DHT22;10062;51.052;13.756;2022-07-18T04:02:25;13.20;1.00
19805;DHT22;10062;51.052;13.756;2022-07-18T04:04:57;13.20;1.00
19805;DHT22;10062;51.052;13.756;2022-07-18T04:07:29;13.30;99.90
19805;DHT22;10062;51.052;13.756;2022-07-18T04:10:02;13.30;1.00
19805;DHT22;10062;51.052;13.756;2022-07-18T04:12:34;13.50;1.00
19805;DHT22;10062;51.052;13.756;2022-07-18T04:15:06;13.50;1.00
19805;DHT22;10062;51.052;13.756;2022-07-18T04:17:38;13.40;1.00
19805;DHT22;10062;51.052;13.756;2022-07-18T04:20:10;13.30;1.00
19805;DHT22;10062;51.052;13.756;2022-07-18T04:22:47;13.40;1.00
19805;DHT22;10062;51.052;13.756;2022-07-18T04:25:22;13.30;1.00
19805;DHT22;10062;51.052;13.756;2022-07-18T04:27:55;13.30;1.00
19805;DHT22;10062;51.052;13.756;2022-07-18T04:30:27;13.50;99.90
19805;DHT22;10062;51.052;13.756;2022-07-18T04:33:01;13.50;99.90
19805;DHT22;10062;51.052;13.756;2022-07-18T04:35:34;13.60;51.50
19805;DHT22;10062;51.052;13.756;2022-07-18T04:38:07;13.70;1.00
19805;DHT22;10062;51.052;13.756;2022-07-18T04:40:40;13.80;1.00
19805;DHT22;10062;51.052;13.756;2022-07-18T04:43:12;13.90;99.90
19805;DHT22;10062;51.052;13.756;2022-07-18T04:45:44;14.00;1.00
19805;DHT22;10062;51.052;13.756;2022-07-18T04:48:16;14.00;1.00
19805;DHT22;10062;51.052;13.756;2022-07-18T04:50:47;14.20;1.00
19805;DHT22;10062;51.052;13.756;2022-07-18T04:53:19;14.30;1.00
19805;DHT22;10062;51.052;13.756;2022-07-18T04:55:52;14.50;1.00
19805;DHT22;10062;51.052;13.756;2022-07-18T04:58:24;14.40;1.00
19805;DHT22;10062;51.052;13.756;2022-07-18T05:00:56;14.40;1.00
19805;DHT22;10062;51.052;13.756;2022-07-18T05:03:27;14.30;1.00
19805;DHT22;10062;51.052;13.756;2022-07-18T05:05:59;14.30;1.00
19805;DHT22;10062;51.052;13.756;2022-07-18T05:08:31;14.20;99.90
19805;DHT22;10062;51.052;13.756;2022-07-18T05:11:04;14.10;99.90
19805;DHT22;10062;51.052;13.756;2022-07-18T05:13:36;14.40;99.90
19805;DHT22;10062;51.052;13.756;2022-07-18T05:16:07;14.40;1.00
19805;DHT22;10062;51.052;13.756;2022-07-18T05:18:39;14.50;1.00
19805;DHT22;10062;51.052;13.756;2022-07-18T05:21:11;14.40;1.00
19805;DHT22;10062;51.052;13.756;2022-07-18T05:23:42;14.50;99.90
19805;DHT22;10062;51.052;13.756;2022-07-18T05:26:17;14.80;1.00
19805;DHT22;10062;51.052;13.756;2022-07-18T05:28:48;14.70;1.00
19805;DHT22;10062;51.052;13.756;2022-07-18T05:31:20;14.70;1.00
19805;DHT22;10062;51.052;13.756;2022-07-18T05:33:52;14.80;1.00
19805;DHT22;10062;51.052;13.756;2022-07-18T05:36:23;14.90;1.00
19805;DHT22;10062;51.052;13.756;2022-07-18T05:38:55;14.90;1.00
19805;DHT22;10062;51.052;13.756;2022-07-18T05:41:28;14.90;1.00
19805;DHT22;10062;51.052;13.756;2022-07-18T05:44:00;15.00;1.00
19805;DHT22;10062;51.052;13.756;2022-07-18T05:46:31;15.20;1.00
19805;DHT22;10062;51.052;13.756;2022-07-18T05:49:03;15.20;1.00
19805;DHT22;10062;51.052;13.756;2022-07-18T05:51:35;15.20;1.00
19805;DHT22;10062;51.052;13.756;2022-07-18T05:54:06;15.30;1.00
19805;DHT22;10062;51.052;13.756;2022-07-18T05:56:40;15.40;1.00
19805;DHT22;10062;51.052;13.756;2022-07-18T05:59:11;15.60;99.90
19805;DHT22;10062;51.052;13.756;2022-07-18T06:01:43;15.70;1.00
19805;DHT22;10062;51.052;13.756;2022-07-18T06:04:15;15.80;1.00
19805;DHT22;10062;51.052;13.756;2022-07-18T06:06:47;15.90;1.00
19805;DHT22;10062;51.052;13.756;2022-07-18T06:09:20;15.90;1.00
19805;DHT22;10062;51.052;13.756;2022-07-18T06:11:53;16.00;1.00
19805;DHT22;10062;51.052;13.756;2022-07-18T06:14:25;16.20;1.00
19805;DHT22;10062;51.052;13.756;2022-07-18T06:16:56;16.30;1.00
19805;DHT22;10062;51.052;13.756;2022-07-18T06:19:28;16.40;1.00
19805;DHT22;10062;51.052;13.756;2022-07-18T06:22:00;16.40;1.00
19805;DHT22;10062;51.052;13.756;2022-07-18T06:24:32;16.40;1.00
19805;DHT22;10062;51.052;13.756;2022-07-18T06:27:05;16.60;1.00
19805;DHT22;10062;51.052;13.756;2022-07-18T06:29:37;16.70;1.00
19805;DHT22;10062;51.052;13.756;2022-07-18T06:32:09;16.80;1.00
19805;DHT22;10062;51.052;13.756;2022-07-18T06:34:41;17.00;99.90
19805;DHT22;10062;51.052;13.756;2022-07-18T06:37:12;17.00;99.90
19805;DHT22;10062;51.052;13.756;2022-07-18T06:39:44;17.20;99.90
19805;DHT22;10062;51.052;13.756;2022-07-18T06:42:17;17.30;99.90
19805;DHT22;10062;51.052;13.756;2022-07-18T06:44:48;17.50;99.90
19805;DHT22;10062;51.052;13.756;2022-07-18T06:47:20;17.60;1.00
19805;DHT22;10062;51.052;13.756;2022-07-18T06:49:52;17.80;1.00
19805;DHT22;10062;51.052;13.756;2022-07-18T06:52:23;18.00;1.00
19805;DHT22;10062;51.052;13.756;2022-07-18T06:54:55;18.10;1.00
19805;DHT22;10062;51.052;13.756;2022-07-18T06:57:28;18.30;1.00
19805;DHT22;10062;51.052;13.756;2022-07-18T07:00:00;18.40;1.00
19805;DHT22;10062;51.052;13.756;2022-07-18T07:02:32;18.60;1.00
19805;DHT22;10062;51.052;13.756;2022-07-18T07:05:04;18.70;1.00
19805;DHT22;10062;51.052;13.756;2022-07-18T07:07:36;18.80;1.00
19805;DHT22;10062;51.052;13.756;2022-07-18T07:10:08;19.00;1.00
19805;DHT22;10062;51.052;13.756;2022-07-18T07:12:42;19.10;1.00
19805;DHT22;10062;51.052;13.756;2022-07-18T07:15:15;19.40;1.00
19805;DHT22;10062;51.052;13.756;2022-07-18T07:17:49;19.60;1.00
19805;DHT22;10062;51.052;13.756;2022-07-18T07:20:20;19.80;1.00
19805;DHT22;10062;51.052;13.756;2022-07-18T07:22:53;19.90;1.00
19805;DHT22;10062;51.052;13.756;2022-07-18T07:25:26;20.10;1.00
19805;DHT22;10062;51.052;13.756;2022-07-18T07:27:59;20.20;1.00
19805;DHT22;10062;51.052;13.756;2022-07-18T07:30:32;20.40;1.00
19805;DHT22;10062;51.052;13.756;2022-07-18T07:33:06;20.70;1.00
19805;DHT22;10062;51.052;13.756;2022-07-18T07:35:38;20.90;1.00
19805;DHT22;10062;51.052;13.756;2022-07-18T07:38:10;21.20;1.00
19805;DHT22;10062;51.052;13.756;2022-07-18T07:40:48;21.40;1.00
19805;DHT22;10062;51.052;13.756;2022-07-18T07:43:21;21.70;1.00
19805;DHT22;10062;51.052;13.756;2022-07-18T07:45:54;21.80;1.00
19805;DHT22;10062;51.052;13.756;2022-07-18T07:48:26;22.00;1.00
19805;DHT22;10062;51.052;13.756;2022-07-18T07:50:58;22.20;1.00
19805;DHT22;10062;51.052;13.756;2022-07-18T07:53:29;22.40;1.00
19805;DHT22;10062;51.052;13.756;2022-07-18T07:56:01;22.60;1.00
19805;DHT22;10062;51.052;13.756;2022-07-18T07:58:35;22.80;1.00
19805;DHT22;10062;51.052;13.756;2022-07-18T08:01:07;22.90;1.00
19805;DHT22;10062;51.052;13.756;2022-07-18T08:03:38;23.10;1.00
19805;DHT22;10062;51.052;13.756;2022-07-18T08:06:10;23.30;1.00
19805;DHT22;10062;51.052;13.756;2022-07-18T08:08:42;23.50;1.00
19805;DHT22;10062;51.052;13.756;2022-07-18T08:11:13;23.60;1.00
19805;DHT22;10062;51.052;13.756;2022-07-18T08:13:47;23.90;1.00
19805;DHT22;10062;51.052;13.756;2022-07-18T08:16:18;24.10;1.00
19805;DHT22;10062;51.052;13.756;2022-07-18T08:18:50;24.20;1.00
19805;DHT22;10062;51.052;13.756;2022-07-18T08:21:22;24.30;1.00
19805;DHT22;10062;51.052;13.756;2022-07-18T08:23:53;24.50;1.00
19805;DHT22;10062;51.052;13.756;2022-07-18T08:26:25;24.60;1.00
19805;DHT22;10062;51.052;13.756;2022-07-18T08:28:58;24.90;1.00
19805;DHT22;10062;51.052;13.756;2022-07-18T08:31:30;25.10;1.00
19805;DHT22;10062;51.052;13.756;2022-07-18T08:34:02;25.20;1.00
19805;DHT22;10062;51.052;13.756;2022-07-18T08:36:33;25.30;1.00
19805;DHT22;10062;51.052;13.756;2022-07-18T08:39:05;25.40;1.00
19805;DHT22;10062;51.052;13.756;2022-07-18T08:41:37;25.60;1.00
19805;DHT22;10062;51.052;13.756;2022-07-18T08:44:12;25.80;1.00
19805;DHT22;10062;51.052;13.756;2022-07-18T08:46:50;26.00;1.00
19805;DHT22;10062;51.052;13.756;2022-07-18T08:49:22;26.20;1.00
19805;DHT22;10062;51.052;13.756;2022-07-18T08:51:54;26.30;1.00
19805;DHT22;10062;51.052;13.756;2022-07-18T08:54:26;26.20;1.00
19805;DHT22;10062;51.052;13.756;2022-07-18T08:56:58;26.30;1.00
19805;DHT22;10062;51.052;13.756;2022-07-18T08:59:31;26.50;1.00
19805;DHT22;10062;51.052;13.756;2022-07-18T09:02:03;26.90;1.00
19805;DHT22;10062;51.052;13.756;2022-07-18T09:04:36;26.90;1.00
19805;DHT22;10062;51.052;13.756;2022-07-18T09:07:09;26.90;1.00
19805;DHT22;10062;51.052;13.756;2022-07-18T09:09:51;27.30;1.00
19805;DHT22;10062;51.052;13.756;2022-07-18T09:12:24;27.60;1.00
19805;DHT22;10062;51.052;13.756;2022-07-18T09:15:04;28.00;1.00
19805;DHT22;10062;51.052;13.756;2022-07-18T09:17:36;28.00;1.00
19805;DHT22;10062;51.052;13.756;2022-07-18T09:20:10;28.30;1.00
19805;DHT22;10062;51.052;13.756;2022-07-18T09:22:45;28.60;1.00
19805;DHT22;10062;51.052;13.756;2022-07-18T09:25:20;29.00;1.00
19805;DHT22;10062;51.052;13.756;2022-07-18T09:27:54;29.40;1.00
19805;DHT22;10062;51.052;13.756;2022-07-18T09:30:29;29.70;1.00
19805;DHT22;10062;51.052;13.756;2022-07-18T09:33:07;30.20;1.00
19805;DHT22;10062;51.052;13.756;2022-07-18T09:35:43;30.20;1.00
19805;DHT22;10062;51.052;13.756;2022-07-18T09:38:17;30.80;1.00
19805;DHT22;10062;51.052;13.756;2022-07-18T09:40:52;30.80;1.00
19805;DHT22;10062;51.052;13.756;2022-07-18T09:43:25;31.00;1.00
19805;DHT22;10062;51.052;13.756;2022-07-18T09:46:04;31.40;1.00
19805;DHT22;10062;51.052;13.756;2022-07-18T09:48:36;31.80;1.00
19805;DHT22;10062;51.052;13.756;2022-07-18T09:51:08;31.90;1.00
19805;DHT22;10062;51.052;13.756;2022-07-18T09:53:42;32.40;1.00
19805;DHT22;10062;51.052;13.756;2022-07-18T09:56:23;33.00;1.00
19805;DHT22;10062;51.052;13.756;2022-07-18T09:58:56;33.60;1.00
19805;DHT22;10062;51.052;13.756;2022-07-18T10:01:29;33.30;1.00
19805;DHT22;10062;51.052;13.756;2022-07-18T10:04:01;34.00;1.00
19805;DHT22;10062;51.052;13.756;2022-07-18T10:06:34;34.70;1.00
19805;DHT22;10062;51.052;13.756;2022-07-18T10:09:06;35.60;1.00
19805;DHT22;10062;51.052;13.756;2022-07-18T10:11:38;36.40;1.00
19805;DHT22;10062;51.052;13.756;2022-07-18T10:14:11;36.10;1.00
19805;DHT22;10062;51.052;13.756;2022-07-18T10:16:44;36.60;1.00
19805;DHT22;10062;51.052;13.756;2022-07-18T10:19:16;37.40;1.00
19805;DHT22;10062;51.052;13.756;2022-07-18T10:21:48;38.30;1.00
19805;DHT22;10062;51.052;13.756;2022-07-18T10:24:21;38.70;1.00
19805;DHT22;10062;51.052;13.756;2022-07-18T10:27:12;39.50;1.00
19805;DHT22;10062;51.052;13.756;2022-07-18T10:30:09;40.60;1.00
19805;DHT22;10062;51.052;13.756;2022-07-18T10:32:42;41.10;1.00
19805;DHT22;10062;51.052;13.756;2022-07-18T10:35:15;41.50;1.00
19805;DHT22;10062;51.052;13.756;2022-07-18T10:37:47;42.40;1.00
19805;DHT22;10062;51.052;13.756;2022-07-18T10:40:26;41.50;1.00
19805;DHT22;10062;51.052;13.756;2022-07-18T10:46:24;41.60;1.00
19805;DHT22;10062;51.052;13.756;2022-07-18T10:48:57;40.90;1.00
19805;DHT22;10062;51.052;13.756;2022-07-18T10:51:31;38.90;1.00
19805;DHT22;10062;51.052;13.756;2022-07-18T10:54:09;38.40;1.00
19805;DHT22;10062;51.052;13.756;2022-07-18T10:57:04;39.80;1.00
19805;DHT22;10062;51.052;13.756;2022-07-18T10:59:38;41.40;1.00
19805;DHT22;10062;51.052;13.756;2022-07-18T11:02:09;42.20;1.00
19805;DHT22;10062;51.052;13.756;2022-07-18T11:04:42;42.60;1.00
19805;DHT22;10062;51.052;13.756;2022-07-18T11:07:15;42.00;1.00
19805;DHT22;10062;51.052;13.756;2022-07-18T11:09:48;42.60;1.00
19805;DHT22;10062;51.052;13.756;2022-07-18T11:12:25;42.80;1.00
19805;DHT22;10062;51.052;13.756;2022-07-18T11:15:07;41.50;1.00
19805;DHT22;10062;51.052;13.756;2022-07-18T11:18:02;40.50;1.00
19805;DHT22;10062;51.052;13.756;2022-07-18T11:20:38;40.00;1.00
19805;DHT22;10062;51.052;13.756;2022-07-18T11:23:18;40.50;1.00
19805;DHT22;10062;51.052;13.756;2022-07-18T11:25:53;39.60;1.00
19805;DHT22;10062;51.052;13.756;2022-07-18T11:28:26;39.50;1.00
19805;DHT22;10062;51.052;13.756;2022-07-18T11:31:02;37.80;1.00
19805;DHT22;10062;51.052;13.756;2022-07-18T11:33:36;36.80;1.00
19805;DHT22;10062;51.052;13.756;2022-07-18T11:36:11;36.50;1.00
19805;DHT22;10062;51.052;13.756;2022-07-18T11:38:46;36.90;1.00
19805;DHT22;10062;51.052;13.756;2022-07-18T11:41:20;36.70;1.00
19805;DHT22;10062;51.052;13.756;2022-07-18T11:43:54;36.40;1.00
19805;DHT22;10062;51.052;13.756;2022-07-18T11:46:27;36.30;1.00
19805;DHT22;10062;51.052;13.756;2022-07-18T11:49:02;35.50;1.00
19805;DHT22;10062;51.052;13.756;2022-07-18T11:51:37;34.50;1.00
19805;DHT22;10062;51.052;13.756;2022-07-18T11:54:11;34.20;1.00
19805;DHT22;10062;51.052;13.756;2022-07-18T11:56:47;34.30;1.00
19805;DHT22;10062;51.052;13.756;2022-07-18T11:59:19;34.10;1.00
19805;DHT22;10062;51.052;13.756;2022-07-18T12:01:51;33.90;1.00
19805;DHT22;10062;51.052;13.756;2022-07-18T12:04:24;33.90;1.00
19805;DHT22;10062;51.052;13.756;2022-07-18T12:07:18;33.80;1.00
19805;DHT22;10062;51.052;13.756;2022-07-18T12:09:52;33.20;1.00
19805;DHT22;10062;51.052;13.756;2022-07-18T12:12:24;32.70;1.00
19805;DHT22;10062;51.052;13.756;2022-07-18T12:14:57;32.50;1.00
19805;DHT22;10062;51.052;13.756;2022-07-18T12:17:30;32.70;1.00
19805;DHT22;10062;51.052;13.756;2022-07-18T12:20:10;32.80;1.00
19805;DHT22;10062;51.052;13.756;2022-07-18T12:23:08;32.40;1.00
19805;DHT22;10062;51.052;13.756;2022-07-18T12:25:57;32.30;1.00
19805;DHT22;10062;51.052;13.756;2022-07-18T12:28:31;31.90;1.00
19805;DHT22;10062;51.052;13.756;2022-07-18T12:31:03;32.00;1.00
19805;DHT22;10062;51.052;13.756;2022-07-18T12:33:34;32.20;1.00
19805;DHT22;10062;51.052;13.756;2022-07-18T12:36:06;32.20;1.00
19805;DHT22;10062;51.052;13.756;2022-07-18T12:38:40;31.90;1.00
19805;DHT22;10062;51.052;13.756;2022-07-18T12:41:12;32.10;1.00
19805;DHT22;10062;51.052;13.756;2022-07-18T12:43:43;32.40;1.00
19805;DHT22;10062;51.052;13.756;2022-07-18T12:46:15;32.60;1.00
19805;DHT22;10062;51.052;13.756;2022-07-18T12:48:47;32.60;1.00
19805;DHT22;10062;51.052;13.756;2022-07-18T12:51:18;32.60;1.00
19805;DHT22;10062;51.052;13.756;2022-07-18T12:53:51;32.70;1.00
19805;DHT22;10062;51.052;13.756;2022-07-18T12:56:23;32.80;1.00
19805;DHT22;10062;51.052;13.756;2022-07-18T12:58:54;32.90;1.00
19805;DHT22;10062;51.052;13.756;2022-07-18T13:01:26;33.00;1.00
19805;DHT22;10062;51.052;13.756;2022-07-18T13:03:58;33.00;1.00
19805;DHT22;10062;51.052;13.756;2022-07-18T13:06:29;33.20;1.00
19805;DHT22;10062;51.052;13.756;2022-07-18T13:09:02;33.20;1.00
19805;DHT22;10062;51.052;13.756;2022-07-18T13:11:34;33.10;1.00
19805;DHT22;10062;51.052;13.756;2022-07-18T13:14:06;32.90;1.00
19805;DHT22;10062;51.052;13.756;2022-07-18T13:16:37;33.00;1.00
19805;DHT22;10062;51.052;13.756;2022-07-18T13:19:09;32.90;1.00
19805;DHT22;10062;51.052;13.756;2022-07-18T13:21:41;33.00;1.00
19805;DHT22;10062;51.052;13.756;2022-07-18T13:24:15;33.10;1.00
19805;DHT22;10062;51.052;13.756;2022-07-18T13:26:46;33.40;1.00
19805;DHT22;10062;51.052;13.756;2022-07-18T13:29:18;33.50;1.00
19805;DHT22;10062;51.052;13.756;2022-07-18T13:31:50;33.10;1.00
19805;DHT22;10062;51.052;13.756;2022-07-18T13:34:21;33.20;1.00
19805;DHT22;10062;51.052;13.756;2022-07-18T13:36:53;33.30;1.00
19805;DHT22;10062;51.052;13.756;2022-07-18T13:39:27;33.60;1.00
19805;DHT22;10062;51.052;13.756;2022-07-18T13:41:58;33.10;1.00
19805;DHT22;10062;51.052;13.756;2022-07-18T13:44:33;33.10;1.00
19805;DHT22;10062;51.052;13.756;2022-07-18T13:47:04;33.30;1.00
19805;DHT22;10062;51.052;13.756;2022-07-18T13:49:36;33.40;1.00
19805;DHT22;10062;51.052;13.756;2022-07-18T13:52:08;33.70;1.00
19805;DHT22;10062;51.052;13.756;2022-07-18T13:54:41;33.70;1.00
19805;DHT22;10062;51.052;13.756;2022-07-18T13:57:13;33.20;1.00
19805;DHT22;10062;51.052;13.756;2022-07-18T13:59:44;32.70;1.00
19805;DHT22;10062;51.052;13.756;2022-07-18T14:02:16;32.80;1.00
19805;DHT22;10062;51.052;13.756;2022-07-18T14:04:48;32.90;1.00
19805;DHT22;10062;51.052;13.756;2022-07-18T14:07:20;32.50;1.00
19805;DHT22;10062;51.052;13.756;2022-07-18T14:09:53;32.60;1.00
19805;DHT22;10062;51.052;13.756;2022-07-18T14:12:24;32.40;1.00
19805;DHT22;10062;51.052;13.756;2022-07-18T14:14:56;32.50;1.00
19805;DHT22;10062;51.052;13.756;2022-07-18T14:17:28;32.50;1.00
19805;DHT22;10062;51.052;13.756;2022-07-18T14:20:00;32.40;1.00
19805;DHT22;10062;51.052;13.756;2022-07-18T14:22:32;32.60;1.00
19805;DHT22;10062;51.052;13.756;2022-07-18T14:25:08;32.70;1.00
19805;DHT22;10062;51.052;13.756;2022-07-18T14:27:40;32.80;1.00
19805;DHT22;10062;51.052;13.756;2022-07-18T14:30:14;32.90;1.00
19805;DHT22;10062;51.052;13.756;2022-07-18T14:32:47;32.90;1.00
19805;DHT22;10062;51.052;13.756;2022-07-18T14:35:19;32.90;1.00
19805;DHT22;10062;51.052;13.756;2022-07-18T14:37:50;33.10;1.00
19805;DHT22;10062;51.052;13.756;2022-07-18T14:40:24;32.90;1.00
19805;DHT22;10062;51.052;13.756;2022-07-18T14:42:55;33.00;1.00
19805;DHT22;10062;51.052;13.756;2022-07-18T14:45:27;32.70;1.00
19805;DHT22;10062;51.052;13.756;2022-07-18T14:47:59;32.80;1.00
19805;DHT22;10062;51.052;13.756;2022-07-18T14:50:31;32.70;1.00
19805;DHT22;10062;51.052;13.756;2022-07-18T14:53:02;32.70;1.00
19805;DHT22;10062;51.052;13.756;2022-07-18T14:55:35;32.80;1.00
19805;DHT22;10062;51.052;13.756;2022-07-18T14:58:07;32.70;1.00
19805;DHT22;10062;51.052;13.756;2022-07-18T15:00:39;32.70;1.00
19805;DHT22;10062;51.052;13.756;2022-07-18T15:03:10;32.80;1.00
19805;DHT22;10062;51.052;13.756;2022-07-18T15:05:42;32.90;1.00
19805;DHT22;10062;51.052;13.756;2022-07-18T15:08:14;33.00;1.00
19805;DHT22;10062;51.052;13.756;2022-07-18T15:10:47;33.10;1.00
19805;DHT22;10062;51.052;13.756;2022-07-18T15:13:18;33.00;1.00
19805;DHT22;10062;51.052;13.756;2022-07-18T15:15:50;33.00;1.00
19805;DHT22;10062;51.052;13.756;2022-07-18T15:18:22;32.50;1.00
19805;DHT22;10062;51.052;13.756;2022-07-18T15:20:54;32.60;1.00
19805;DHT22;10062;51.052;13.756;2022-07-18T15:23:26;32.50;1.00
19805;DHT22;10062;51.052;13.756;2022-07-18T15:25:59;32.40;1.00
19805;DHT22;10062;51.052;13.756;2022-07-18T15:28:30;32.50;1.00
19805;DHT22;10062;51.052;13.756;2022-07-18T15:31:02;32.60;1.00
19805;DHT22;10062;51.052;13.756;2022-07-18T15:33:34;32.20;1.00
19805;DHT22;10062;51.052;13.756;2022-07-18T15:36:06;32.10;1.00
19805;DHT22;10062;51.052;13.756;2022-07-18T15:38:37;32.20;1.00
19805;DHT22;10062;51.052;13.756;2022-07-18T15:41:11;32.40;1.00
19805;DHT22;10062;51.052;13.756;2022-07-18T15:43:42;32.00;1.00
19805;DHT22;10062;51.052;13.756;2022-07-18T15:46:14;32.10;1.00
19805;DHT22;10062;51.052;13.756;2022-07-18T15:48:47;31.90;1.00
19805;DHT22;10062;51.052;13.756;2022-07-18T15:51:19;32.00;1.00
19805;DHT22;10062;51.052;13.756;2022-07-18T15:53:50;32.10;1.00
19805;DHT22;10062;51.052;13.756;2022-07-18T15:56:23;31.70;1.00
19805;DHT22;10062;51.052;13.756;2022-07-18T15:58:55;31.90;1.00
19805;DHT22;10062;51.052;13.756;2022-07-18T16:01:27;31.60;1.00
19805;DHT22;10062;51.052;13.756;2022-07-18T16:03:58;31.70;1.00
19805;DHT22;10062;51.052;13.756;2022-07-18T16:06:30;31.60;1.00
19805;DHT22;10062;51.052;13.756;2022-07-18T16:09:02;31.30;1.00